Weather at City of Derry Airport

Public forecast

Using degrees Celsius for public forecast. Weather courtesy of forecast.io.

Current aviation weather report (METAR) for City of Derry Airport

Report is more than 2 hours old.

2024/05/25 21:20 (retrieved 2 hours ago)

EGAE 252120Z 10006KT CAVOK 11/07 Q1011

Closest aviation forecast (TAF) to City of Derry Airport

Closest forecast is Belfast International Airport, 40.0 nm (74.1 km) SE.

2024/05/25 18:00 (retrieved 5 hours ago)

TAF EGAA 251702Z 2518/2618 15015G25KT 9999 FEW045 BECMG 2518/2521 10008KT TEMPO 2601/2609 BKN010 PROB40 TEMPO 2601/2609 7000 RA SHRA BKN006 PROB40 TEMPO 2609/2614 7000 RA SHRA BKN010 PROB30 TEMPO 2614/2618 3000 +SHRA BKN014CB